Airfield :







YOU CAN JOIN US ON...

 
LOGIN :

Register | Disclaimer

   EN    FR    IT 

 









Legend :    VFR   Marginal VFR   IFR   Intensive IFR   Very Intensive IFR
Visi :
Ceiling :
>= 8 km
>= 3000ft
5 to 8 km
1000 to 3000 ft
1500m to 5 km
500 to 1000 ft
800 to 1500m
200 to 500 ft
< 800m
< 200 ft
Symbols :   Thunderstorms  Fog  Heavy snow  Heavy precipitations  Wind > 20 kt







- Airport Elevation : 40 ft
- IATA code : YRF


CYCA - Cartwright

CURRENT METAR :
  • 150700Z AUTO 24005KT 9SM OVC024 11/07 A2985 RMK SLP111

EXPIRED METARs :
  • 150649Z AUTO 23005KT 9SM OVC024 11/07 A2986 RMK SLP112
  • 150600Z AUTO 20012G18KT 9SM OVC032 11/06 A2987 RMK SLP116
  • 150500Z AUTO 20010G20KT 9SM SCT110 OVC140 11/05 A2989 RMK SLP122

TAF TAF CYCA
Valid from the 15 at 08:00 until the 15 at 20:00 UTC


150738Z 1508/1520 24005KT P6SM -RA OVC030
TEMPO 1508/1520 3SM -RA BR OVC012
BECMG 1509/1511 22010G20KT RMK FCST BASED ON AUTO OBS. NXT FCST BY 151400Z
No reported NOTAMs for that airfield.



MET'MAP, your aeronautical weather chart ! - Copyright ORBIFLY December 2007 - Disclaimer

ORBIFLY MET'MAP TEAM :

Programming & Development : Alexandra Zaïnal
Concept & Development : Baudouin d'Aumeries
Co-Development & Prog : Marc-Olivier Méhu
Technical & hardware support : Manuel Goepfert

Contact : metmap@orbifly.com




SOURCES & CREDITS :

   NOAA